Time;durP1;ratioP1;P1;durP2;ratioP2;P2;SDS_P1;SDS_P2;PMS_P1;PMS_P2;Temp;Humidity;BMP_temperature;BMP_pressure;BME280_temperature;BME280_humidity;BME280_pressure;Samples;Min_cycle;Max_cycle;Signal;HPM_P1;HPM_P2
2022/09/12 00:00:38;;;;;;;12.52;2.22;;;33.40;87.90;;;;;;5068259;28;20443;-62
2022/09/12 00:03:04;;;;;;;4.75;2.35;;;33.40;89.30;;;;;;5069936;28;20097;-65
2022/09/12 00:05:32;;;;;;;6.60;2.30;;;33.50;90.00;;;;;;5068386;28;20038;-63
2022/09/12 00:07:59;;;;;;;9.40;3.33;;;33.40;89.90;;;;;;5061787;28;20049;-66
2022/09/12 00:10:26;;;;;;;10.27;3.67;;;33.30;90.10;;;;;;5068326;28;20405;-66
2022/09/12 00:12:52;;;;;;;8.43;3.60;;;33.30;89.30;;;;;;5049865;28;20521;-66
2022/09/12 00:15:18;;;;;;;17.15;4.38;;;33.20;88.40;;;;;;5067548;28;20151;-66
2022/09/12 00:17:45;;;;;;;10.55;3.50;;;33.20;90.20;;;;;;5069353;28;20085;-64
2022/09/12 00:20:11;;;;;;;8.93;3.20;;;33.20;89.40;;;;;;5067902;28;20057;-67
2022/09/12 00:22:37;;;;;;;10.48;3.20;;;33.30;90.50;;;;;;5065827;28;20047;-66
2022/09/12 00:25:05;;;;;;;9.27;2.97;;;33.30;91.40;;;;;;5067880;28;20046;-66
2022/09/12 00:27:31;;;;;;;7.65;2.83;;;33.10;90.70;;;;;;5066687;28;20498;-65
2022/09/12 00:29:57;;;;;;;6.72;2.92;;;33.20;90.00;;;;;;5067275;28;20062;-66
2022/09/12 00:32:24;;;;;;;10.32;2.60;;;33.30;90.80;;;;;;5064083;28;20142;-66
2022/09/12 00:34:50;;;;;;;7.93;2.25;;;33.30;89.20;;;;;;5065423;28;20074;-65
2022/09/12 00:37:16;;;;;;;5.25;2.28;;;33.30;90.90;;;;;;5069504;28;20055;-64
2022/09/12 00:39:43;;;;;;;6.57;2.60;;;33.40;88.00;;;;;;5068360;28;20089;-64
2022/09/12 00:42:11;;;;;;;8.23;2.35;;;33.40;89.10;;;;;;5060654;28;20034;-63
2022/09/12 00:44:37;;;;;;;7.90;2.60;;;33.40;89.60;;;;;;5062175;28;20061;-66
2022/09/12 00:47:16;;;;;;;11.63;2.35;;;33.30;89.80;;;;;;5065166;28;20506;-65
2022/09/12 00:49:49;;;;;;;6.63;2.35;;;33.30;87.40;;;;;;5048902;28;20954;-65
2022/09/12 00:52:30;;;;;;;7.63;2.15;;;33.20;90.20;;;;;;5068059;28;20066;-64
2022/09/12 00:55:00;;;;;;;11.18;3.42;;;33.30;90.50;;;;;;5067372;28;20054;-65
2022/09/12 00:57:40;;;;;;;9.48;2.80;;;33.20;89.00;;;;;;5035694;28;20192;-66
2022/09/12 01:00:17;;;;;;;8.23;3.00;;;33.20;88.60;;;;;;5048538;28;20063;-65
2022/09/12 01:02:53;;;;;;;7.07;2.50;;;33.20;88.40;;;;;;5066191;28;20040;-63
2022/09/12 01:05:21;;;;;;;11.68;3.55;;;33.00;90.40;;;;;;5068634;28;20521;-63
2022/09/12 01:07:49;;;;;;;6.43;2.60;;;33.00;90.20;;;;;;5048819;28;20520;-63
2022/09/12 01:10:16;;;;;;;18.20;3.20;;;32.90;90.90;;;;;;5050609;28;20140;-63
2022/09/12 01:12:43;;;;;;;9.80;3.28;;;32.90;90.60;;;;;;5064422;28;20150;-64
2022/09/12 01:15:10;;;;;;;12.00;3.83;;;32.80;90.80;;;;;;5060196;28;20121;-65
2022/09/12 01:17:52;;;;;;;8.20;3.15;;;32.80;90.20;;;;;;5062887;28;20051;-65
2022/09/12 01:20:40;;;;;;;12.70;3.45;;;32.80;90.10;;;;;;5069463;28;20575;-63
2022/09/12 01:23:25;;;;;;;11.90;2.90;;;32.80;90.70;;;;;;5069078;28;20838;-65
2022/09/12 01:26:28;;;;;;;12.00;2.70;;;32.70;90.10;;;;;;5068194;28;20143;-63
2022/09/12 01:29:33;;;;;;;10.07;3.08;;;32.70;90.70;;;;;;5068581;28;20069;-63
2022/09/12 01:32:05;;;;;;;14.35;3.40;;;32.60;91.50;;;;;;5068155;28;20090;-63
2022/09/12 01:34:59;;;;;;;20.60;4.65;;;32.60;91.90;;;;;;5065330;28;20062;-63
2022/09/12 01:37:48;;;;;;;16.58;4.88;;;32.60;94.70;;;;;;5067322;28;20044;-64
2022/09/12 01:40:43;;;;;;;13.50;4.63;;;32.40;91.40;;;;;;5052060;28;20078;-63
2022/09/12 01:43:17;;;;;;;13.20;5.07;;;32.40;93.80;;;;;;5067292;28;20412;-63
2022/09/12 01:46:00;;;;;;;18.90;5.93;;;32.30;94.40;;;;;;5067471;28;20046;-62
2022/09/12 01:48:34;;;;;;;17.60;6.10;;;32.20;92.10;;;;;;5052926;28;20064;-62
2022/09/12 01:51:26;;;;;;;19.80;7.90;;;32.20;92.70;;;;;;5067340;28;20544;-63
2022/09/12 01:54:08;;;;;;;22.63;6.93;;;32.10;91.10;;;;;;5067664;28;20075;-63
2022/09/12 01:56:38;;;;;;;14.73;7.15;;;32.10;92.90;;;;;;5050692;28;20403;-62
2022/09/12 01:59:18;;;;;;;11.88;6.85;;;32.10;93.10;;;;;;5048977;28;20087;-65
2022/09/12 02:02:06;;;;;;;13.60;6.70;;;32.00;93.00;;;;;;5068586;28;20397;-63
2022/09/12 02:04:51;;;;;;;17.65;6.45;;;31.90;93.30;;;;;;5061668;28;20053;-64
2022/09/12 02:07:23;;;;;;;10.95;6.70;;;31.90;93.50;;;;;;5065348;28;20156;-62
2022/09/12 02:10:01;;;;;;;12.98;7.13;;;31.80;92.50;;;;;;5066483;28;20052;-62
2022/09/12 02:12:36;;;;;;;14.45;7.90;;;31.80;93.20;;;;;;5051181;28;20051;-63
2022/09/12 02:15:07;;;;;;;11.40;6.53;;;31.80;93.20;;;;;;5063169;28;20075;-64
2022/09/12 02:17:38;;;;;;;12.60;7.82;;;31.70;93.40;;;;;;5050158;28;20575;-63
2022/09/12 02:20:13;;;;;;;19.60;8.07;;;31.70;94.40;;;;;;5046316;28;20081;-65
2022/09/12 02:22:41;;;;;;;12.82;8.00;;;31.50;93.40;;;;;;5065872;28;20048;-61
2022/09/12 02:25:10;;;;;;;11.70;7.47;;;31.50;93.70;;;;;;5066208;28;20408;-61
2022/09/12 02:27:39;;;;;;;19.35;6.97;;;31.50;93.50;;;;;;5067555;28;20131;-64
2022/09/12 02:30:07;;;;;;;18.33;7.68;;;31.40;93.40;;;;;;5064301;28;20364;-62
2022/09/12 02:32:43;;;;;;;14.00;7.10;;;31.40;92.80;;;;;;5066327;28;20558;-62
2022/09/12 02:35:42;;;;;;;11.45;7.10;;;31.40;93.80;;;;;;5046455;28;20556;-64
2022/09/12 02:38:21;;;;;;;13.50;7.88;;;31.40;94.70;;;;;;5046500;28;20399;-63
2022/09/12 02:40:47;;;;;;;19.27;8.25;;;31.30;95.00;;;;;;5058757;28;20075;-62
2022/09/12 02:43:14;;;;;;;20.38;8.52;;;31.30;95.70;;;;;;5041659;28;20505;-62
2022/09/12 02:45:41;;;;;;;18.17;8.77;;;31.20;95.70;;;;;;5065631;28;20539;-64
2022/09/12 02:48:14;;;;;;;19.55;7.95;;;31.20;96.00;;;;;;5066854;28;20076;-63
2022/09/12 02:50:42;;;;;;;30.75;10.43;;;31.10;95.80;;;;;;5063244;28;20184;-63
2022/09/12 02:53:10;;;;;;;22.75;10.93;;;31.00;95.90;;;;;;5067893;28;20100;-64
2022/09/12 02:55:38;;;;;;;31.77;10.15;;;31.00;96.50;;;;;;5071345;28;20085;-64
2022/09/12 02:58:08;;;;;;;22.60;9.07;;;31.00;96.80;;;;;;5070053;28;20461;-63
2022/09/12 03:00:57;;;;;;;17.27;8.05;;;31.00;96.90;;;;;;5071360;28;20070;-64
2022/09/12 03:03:51;;;;;;;15.40;6.88;;;30.90;97.50;;;;;;5054034;28;20053;-64
2022/09/12 03:06:50;;;;;;;19.73;7.65;;;30.90;96.80;;;;;;5067700;28;20410;-59
2022/09/12 03:09:35;;;;;;;15.88;6.45;;;30.80;96.80;;;;;;5070914;28;20098;-65
2022/09/12 03:12:20;;;;;;;16.65;6.00;;;30.80;97.40;;;;;;5064785;28;20030;-62
2022/09/12 03:15:00;;;;;;;14.02;6.68;;;30.70;97.00;;;;;;5070036;28;20054;-62
2022/09/12 03:17:42;;;;;;;15.93;6.18;;;30.70;97.40;;;;;;5070426;28;20055;-64
2022/09/12 03:20:34;;;;;;;15.50;6.18;;;30.70;97.10;;;;;;5069761;28;20071;-62
2022/09/12 03:23:32;;;;;;;14.73;7.35;;;30.60;97.00;;;;;;5054221;28;20054;-64
2022/09/12 03:26:19;;;;;;;20.25;7.85;;;30.60;97.60;;;;;;5064888;28;20087;-64
2022/09/12 03:28:46;;;;;;;14.68;7.72;;;30.60;98.20;;;;;;5069103;28;20144;-64
2022/09/12 03:31:15;;;;;;;18.58;7.15;;;30.50;97.90;;;;;;5067578;28;20047;-64
2022/09/12 03:33:42;;;;;;;20.30;7.22;;;30.50;97.70;;;;;;5069600;28;20051;-64
2022/09/12 03:36:29;;;;;;;13.40;6.32;;;30.50;99.00;;;;;;5066618;28;20626;-64
2022/09/12 03:38:55;;;;;;;22.30;7.47;;;30.50;98.40;;;;;;5068784;28;20092;-64
2022/09/12 03:41:22;;;;;;;16.50;7.47;;;30.40;98.40;;;;;;5068757;28;20553;-64
2022/09/12 03:43:48;;;;;;;16.25;7.30;;;30.40;97.90;;;;;;5070144;28;20084;-63
2022/09/12 03:46:15;;;;;;;14.88;6.95;;;30.50;97.50;;;;;;5071164;28;20055;-63
2022/09/12 03:48:41;;;;;;;15.65;6.70;;;30.50;98.10;;;;;;5069361;28;20506;-63
2022/09/12 03:51:09;;;;;;;12.35;5.82;;;30.50;98.00;;;;;;5069408;28;20093;-64
2022/09/12 03:53:36;;;;;;;12.13;5.90;;;30.50;98.30;;;;;;5068849;28;20063;-64
2022/09/12 03:56:07;;;;;;;13.15;6.75;;;30.50;98.40;;;;;;5035520;28;20413;-63
2022/09/12 03:58:35;;;;;;;13.52;6.35;;;30.50;99.40;;;;;;5068744;28;20075;-64
2022/09/12 04:01:13;;;;;;;15.85;6.57;;;30.50;99.10;;;;;;5069576;28;20090;-63
2022/09/12 04:03:41;;;;;;;12.73;9.35;;;30.50;99.20;;;;;;5053471;28;20055;-64
2022/09/12 04:06:09;;;;;;;14.75;8.77;;;30.40;99.40;;;;;;5066459;28;20070;-63
2022/09/12 04:08:36;;;;;;;11.02;8.32;;;30.40;99.70;;;;;;5060923;28;20057;-64
2022/09/12 04:11:05;;;;;;;10.50;7.90;;;30.40;99.80;;;;;;5064976;28;20055;-63
2022/09/12 04:13:32;;;;;;;9.68;7.57;;;30.40;99.90;;;;;;5064785;28;20104;-62
2022/09/12 04:15:59;;;;;;;11.45;8.18;;;30.40;99.90;;;;;;5065850;28;20509;-62
2022/09/12 04:18:26;;;;;;;17.05;10.18;;;30.30;99.90;;;;;;5050346;28;20149;-62
2022/09/12 04:20:53;;;;;;;17.55;9.68;;;30.30;99.90;;;;;;5069635;28;20067;-62
2022/09/12 04:23:19;;;;;;;15.05;11.00;;;30.30;99.90;;;;;;5070129;28;20183;-63
2022/09/12 04:25:54;;;;;;;18.70;12.27;;;30.20;99.90;;;;;;5070990;28;20414;-64
2022/09/12 04:28:21;;;;;;;13.75;9.73;;;30.20;99.90;;;;;;5067097;28;20067;-63
2022/09/12 04:30:47;;;;;;;15.07;11.40;;;30.20;99.90;;;;;;5070278;28;20076;-63
2022/09/12 04:33:14;;;;;;;20.55;11.90;;;30.20;99.90;;;;;;5051090;28;20096;-63
2022/09/12 04:35:41;;;;;;;25.48;11.38;;;30.20;99.90;;;;;;5052476;28;20600;-63
2022/09/12 04:38:08;;;;;;;16.33;8.85;;;30.20;99.90;;;;;;5049111;28;20415;-63
2022/09/12 04:40:35;;;;;;;15.88;8.45;;;30.10;99.90;;;;;;5068213;28;20110;-63
2022/09/12 04:43:01;;;;;;;17.35;8.93;;;30.10;99.90;;;;;;5049670;28;20091;-65
2022/09/12 04:45:28;;;;;;;13.57;8.77;;;30.10;99.90;;;;;;5069763;28;20049;-63
2022/09/12 04:47:54;;;;;;;12.20;7.18;;;30.00;99.90;;;;;;5068760;28;20074;-63
2022/09/12 04:50:21;;;;;;;12.43;7.55;;;30.00;99.90;;;;;;5068362;28;20075;-64
2022/09/12 04:52:52;;;;;;;11.50;6.57;;;30.00;99.90;;;;;;5068607;28;20528;-64
2022/09/12 04:55:20;;;;;;;10.55;6.72;;;29.90;99.90;;;;;;5063813;28;20142;-63
2022/09/12 04:57:46;;;;;;;8.40;7.05;;;29.90;99.90;;;;;;5068394;28;20058;-63
2022/09/12 05:00:14;;;;;;;11.60;6.97;;;29.90;99.90;;;;;;5068479;28;20163;-64
2022/09/12 05:02:41;;;;;;;11.30;6.93;;;29.90;99.90;;;;;;5069147;28;20056;-64
2022/09/12 05:05:08;;;;;;;11.70;7.18;;;29.80;99.90;;;;;;5067874;28;20430;-64
2022/09/12 05:07:35;;;;;;;12.43;7.47;;;29.80;99.90;;;;;;5068970;28;20052;-63
2022/09/12 05:10:03;;;;;;;13.00;7.97;;;29.80;99.90;;;;;;5065640;28;20143;-65
2022/09/12 05:12:30;;;;;;;14.70;6.72;;;29.80;99.90;;;;;;5067324;28;20057;-64
2022/09/12 05:14:56;;;;;;;14.70;6.10;;;29.80;99.90;;;;;;5070133;28;20062;-64
2022/09/12 05:17:23;;;;;;;10.55;5.55;;;29.70;99.90;;;;;;5064351;28;20057;-62
2022/09/12 05:19:49;;;;;;;11.00;5.20;;;29.70;99.90;;;;;;5065832;28;20077;-63
2022/09/12 05:22:16;;;;;;;13.05;5.68;;;29.70;99.90;;;;;;5067486;28;20402;-64
2022/09/12 05:24:43;;;;;;;11.85;5.47;;;29.70;99.90;;;;;;5068293;28;20149;-65
2022/09/12 05:27:10;;;;;;;12.65;6.65;;;29.60;99.90;;;;;;5067708;28;20102;-63
2022/09/12 05:29:36;;;;;;;9.43;5.20;;;29.60;99.90;;;;;;5063830;28;20088;-64
2022/09/12 05:32:03;;;;;;;12.82;6.38;;;29.60;99.90;;;;;;5063696;28;20150;-65
2022/09/12 05:34:29;;;;;;;11.63;6.10;;;29.60;99.90;;;;;;5047349;28;20074;-62
2022/09/12 05:36:56;;;;;;;10.35;6.60;;;29.70;99.90;;;;;;5065149;28;20189;-66
2022/09/12 05:39:23;;;;;;;8.48;6.50;;;29.60;99.90;;;;;;5060879;28;20075;-64
2022/09/12 05:41:49;;;;;;;14.65;6.32;;;29.60;99.90;;;;;;5067112;28;20054;-64
2022/09/12 05:44:16;;;;;;;13.73;7.07;;;29.60;99.90;;;;;;5063210;28;20058;-65
2022/09/12 05:46:45;;;;;;;12.77;6.40;;;29.60;99.90;;;;;;5063070;28;20110;-64
2022/09/12 05:49:13;;;;;;;23.55;14.38;;;29.60;99.90;;;;;;5062578;28;20061;-65
2022/09/12 05:51:43;;;;;;;17.00;9.85;;;29.70;99.90;;;;;;5064728;28;20066;-65
2022/09/12 05:54:18;;;;;;;15.13;8.23;;;29.70;99.90;;;;;;5061247;28;20122;-65
2022/09/12 05:56:44;;;;;;;22.02;11.95;;;29.80;99.90;;;;;;5064813;28;20064;-64
2022/09/12 05:59:16;;;;;;;27.90;15.23;;;29.80;99.90;;;;;;5066783;28;20152;-65
2022/09/12 06:01:43;;;;;;;21.60;11.30;;;29.70;99.90;;;;;;5032651;28;20092;-65
2022/09/12 06:04:10;;;;;;;15.63;12.32;;;29.70;99.90;;;;;;5059672;28;20137;-67
2022/09/12 06:06:40;;;;;;;17.83;12.20;;;29.50;99.90;;;;;;5067093;28;20057;-65
2022/09/12 06:09:07;;;;;;;16.33;12.45;;;29.40;99.90;;;;;;5065107;28;20064;-66
2022/09/12 06:11:36;;;;;;;19.80;12.52;;;29.30;99.90;;;;;;5064047;28;20067;-64
2022/09/12 06:14:03;;;;;;;15.55;13.13;;;29.20;99.90;;;;;;5046828;28;20428;-65
2022/09/12 06:16:32;;;;;;;17.15;13.10;;;29.20;99.90;;;;;;5066030;28;20530;-67
2022/09/12 06:19:01;;;;;;;17.77;14.35;;;29.20;99.90;;;;;;5047102;28;20116;-64
2022/09/12 06:21:30;;;;;;;19.38;14.40;;;29.10;99.90;;;;;;5066998;28;20099;-66
2022/09/12 06:24:00;;;;;;;19.05;13.65;;;29.10;99.90;;;;;;5067048;28;20074;-65
2022/09/12 06:26:28;;;;;;;15.30;11.52;;;29.00;99.90;;;;;;5051739;28;20084;-66
2022/09/12 06:28:56;;;;;;;14.85;10.77;;;29.00;99.90;;;;;;5067437;28;20061;-67
2022/09/12 06:31:33;;;;;;;12.77;10.68;;;29.00;99.90;;;;;;5069305;28;20162;-65
2022/09/12 06:34:02;;;;;;;12.57;9.75;;;29.00;99.90;;;;;;5068844;28;20082;-64
2022/09/12 06:36:32;;;;;;;12.65;10.35;;;28.90;99.90;;;;;;5053612;28;20156;-65
2022/09/12 06:39:09;;;;;;;12.77;9.75;;;28.90;99.90;;;;;;5065859;28;20089;-66
2022/09/12 06:41:36;;;;;;;12.27;9.60;;;28.90;99.90;;;;;;5067938;28;20122;-64
2022/09/12 06:44:03;;;;;;;9.60;8.60;;;28.90;99.90;;;;;;5071508;28;20068;-64
2022/09/12 06:46:30;;;;;;;14.60;9.50;;;28.80;99.90;;;;;;5065098;28;20144;-64
2022/09/12 06:48:58;;;;;;;9.95;8.45;;;28.80;99.90;;;;;;5070687;28;20129;-64
2022/09/12 06:51:25;;;;;;;9.10;7.18;;;28.80;99.90;;;;;;5069080;28;20060;-64
2022/09/12 06:53:55;;;;;;;9.35;7.63;;;28.70;99.90;;;;;;5069944;28;20069;-64
2022/09/12 06:56:24;;;;;;;9.02;6.38;;;28.70;99.90;;;;;;5070852;28;20561;-65
2022/09/12 06:58:51;;;;;;;6.75;5.00;;;28.70;99.90;;;;;;5062419;28;20068;-66
2022/09/12 07:01:29;;;;;;;5.70;4.38;;;28.70;99.90;;;;;;5067048;28;21463;-64
2022/09/12 07:03:58;;;;;;;3.45;3.15;;;28.70;99.90;;;;;;5051637;28;20143;-64
2022/09/12 07:06:33;;;;;;;4.60;2.00;;;28.70;99.90;;;;;;5067883;28;20075;-65
2022/09/12 07:09:01;;;;;;;3.17;1.98;;;28.60;99.90;;;;;;5066590;28;20131;-65
2022/09/12 07:11:32;;;;;;;3.30;1.77;;;28.60;99.90;;;;;;5067968;28;20115;-63
2022/09/12 07:14:01;;;;;;;6.28;1.83;;;28.60;99.90;;;;;;5069781;28;20079;-64
2022/09/12 07:16:28;;;;;;;4.10;1.75;;;28.60;99.90;;;;;;5069391;28;20066;-64
2022/09/12 07:18:59;;;;;;;2.75;1.60;;;28.60;99.90;;;;;;5069405;28;20061;-65
2022/09/12 07:21:26;;;;;;;4.75;1.73;;;28.60;99.90;;;;;;5069115;28;20074;-64
2022/09/12 07:24:01;;;;;;;3.05;1.67;;;28.60;99.90;;;;;;5069928;28;20065;-63
2022/09/12 07:26:29;;;;;;;5.18;2.47;;;28.60;99.90;;;;;;5066669;28;20076;-64
2022/09/12 07:28:57;;;;;;;3.50;1.92;;;28.60;99.90;;;;;;5066533;28;20062;-65
2022/09/12 07:31:25;;;;;;;2.75;1.70;;;28.60;99.90;;;;;;5066136;28;20073;-64
2022/09/12 07:33:52;;;;;;;3.38;1.90;;;28.60;99.90;;;;;;5068831;28;20057;-64
2022/09/12 07:36:21;;;;;;;3.38;2.00;;;28.60;99.90;;;;;;5069719;28;20106;-64
2022/09/12 07:38:47;;;;;;;7.53;2.28;;;28.60;99.90;;;;;;5069211;28;20953;-64
2022/09/12 07:41:22;;;;;;;4.45;1.92;;;28.60;99.90;;;;;;5064655;28;20143;-64
2022/09/12 07:43:52;;;;;;;2.55;1.50;;;28.60;99.90;;;;;;5069254;28;20070;-64
2022/09/12 07:46:19;;;;;;;4.25;2.20;;;28.60;99.90;;;;;;5069404;28;20123;-64
2022/09/12 07:48:50;;;;;;;1.60;1.45;;;28.60;99.90;;;;;;5069163;28;20091;-64
2022/09/12 07:51:17;;;;;;;6.15;2.15;;;28.60;99.90;;;;;;5068776;28;20125;-64
2022/09/12 07:53:43;;;;;;;2.20;1.50;;;28.60;99.90;;;;;;5068518;28;20089;-64
2022/09/12 07:56:11;;;;;;;5.20;1.73;;;28.60;99.90;;;;;;5052647;28;20093;-64
2022/09/12 07:58:39;;;;;;;4.45;2.10;;;28.60;99.90;;;;;;5049991;28;20071;-64
2022/09/12 08:01:17;;;;;;;6.00;1.98;;;28.50;99.90;;;;;;5050544;28;20084;-64
2022/09/12 08:03:47;;;;;;;2.90;1.60;;;28.50;99.90;;;;;;5066339;28;20087;-64
2022/09/12 08:06:19;;;;;;;2.40;1.85;;;28.50;99.90;;;;;;5047957;28;20082;-64
2022/09/12 08:08:46;;;;;;;4.28;1.63;;;28.50;99.90;;;;;;5064900;28;20062;-64
2022/09/12 08:11:15;;;;;;;2.88;1.38;;;28.50;99.90;;;;;;5067177;28;21321;-64
2022/09/12 08:13:43;;;;;;;4.05;1.73;;;28.50;99.90;;;;;;5068222;28;20074;-65
2022/09/12 08:16:30;;;;;;;4.60;1.70;;;28.50;99.90;;;;;;5068538;28;20174;-64
2022/09/12 08:18:57;;;;;;;4.72;1.73;;;28.50;99.90;;;;;;5068988;28;20149;-65
2022/09/12 08:21:29;;;;;;;4.20;1.92;;;28.50;99.90;;;;;;5049332;28;20172;-65
2022/09/12 08:24:03;;;;;;;7.82;1.85;;;28.60;99.90;;;;;;5067585;28;20084;-63
2022/09/12 08:26:31;;;;;;;4.57;1.50;;;28.60;99.90;;;;;;5052988;28;20071;-64
2022/09/12 08:28:58;;;;;;;4.75;2.25;;;28.60;99.90;;;;;;5069580;28;20104;-66
2022/09/12 08:31:26;;;;;;;3.92;1.60;;;28.60;99.90;;;;;;5069344;28;20067;-64
2022/09/12 08:33:55;;;;;;;2.83;1.60;;;28.50;99.90;;;;;;5033811;28;20533;-64
2022/09/12 08:36:25;;;;;;;4.93;2.00;;;28.50;99.90;;;;;;5068873;28;20586;-63
2022/09/12 08:38:56;;;;;;;4.47;1.98;;;28.50;99.90;;;;;;5049606;28;20087;-64
2022/09/12 08:41:44;;;;;;;4.90;2.20;;;28.50;99.90;;;;;;5062771;28;20083;-65
2022/09/12 08:44:58;;;;;;;6.47;1.95;;;28.50;99.90;;;;;;5046737;28;20084;-64
2022/09/12 08:47:37;;;;;;;2.22;1.58;;;28.50;99.90;;;;;;5066811;28;20160;-64
2022/09/12 08:50:12;;;;;;;4.97;2.00;;;28.50;99.90;;;;;;5068514;28;20079;-64
2022/09/12 08:53:05;;;;;;;7.40;2.10;;;28.50;99.90;;;;;;5061433;28;20580;-63
2022/09/12 08:55:41;;;;;;;4.85;2.10;;;28.50;99.90;;;;;;5062188;28;20065;-64
2022/09/12 08:58:15;;;;;;;5.72;2.30;;;28.60;99.90;;;;;;5063618;28;20443;-64
2022/09/12 09:01:00;;;;;;;3.55;2.10;;;28.50;99.90;;;;;;5069114;28;20172;-63
2022/09/12 09:03:49;;;;;;;3.33;2.20;;;28.50;99.90;;;;;;5069305;28;20538;-64
2022/09/12 09:06:34;;;;;;;5.45;2.75;;;28.50;99.90;;;;;;5066551;28;20087;-64
2022/09/12 09:09:40;;;;;;;6.25;3.03;;;28.40;99.90;;;;;;5063987;28;20152;-65
2022/09/12 09:12:39;;;;;;;4.22;2.70;;;28.40;99.90;;;;;;5065111;28;20418;-65
2022/09/12 09:15:08;;;;;;;5.05;2.55;;;28.30;99.90;;;;;;5065023;28;20071;-64
2022/09/12 09:17:38;;;;;;;6.18;2.65;;;28.30;99.90;;;;;;5061781;28;20081;-61
2022/09/12 09:20:26;;;;;;;2.63;2.10;;;28.30;99.90;;;;;;5067869;28;20079;-64
2022/09/12 09:23:07;;;;;;;4.00;2.45;;;28.20;99.90;;;;;;5061358;28;20075;-63
2022/09/12 09:26:00;;;;;;;3.17;2.17;;;28.20;99.90;;;;;;5042947;28;20083;-63
2022/09/12 09:28:56;;;;;;;4.70;2.47;;;28.20;99.90;;;;;;5045413;28;20079;-64
2022/09/12 09:31:25;;;;;;;6.25;2.42;;;28.20;99.90;;;;;;5050055;28;20181;-66
2022/09/12 09:33:57;;;;;;;5.80;2.35;;;28.20;99.90;;;;;;5064166;28;20953;-64
2022/09/12 09:36:24;;;;;;;4.18;2.10;;;28.20;99.90;;;;;;5049067;28;20098;-64
2022/09/12 09:39:04;;;;;;;4.72;2.08;;;28.10;99.90;;;;;;5049796;28;20107;-64
2022/09/12 09:41:58;;;;;;;8.63;2.50;;;28.10;99.90;;;;;;5046171;28;20181;-65
2022/09/12 09:44:28;;;;;;;6.85;2.33;;;28.00;99.90;;;;;;5049990;28;20079;-65
2022/09/12 09:46:58;;;;;;;5.82;2.42;;;28.10;99.90;;;;;;5047706;28;20999;-64
2022/09/12 09:49:28;;;;;;;7.20;2.40;;;28.10;99.90;;;;;;5067706;28;20166;-64
2022/09/12 09:51:57;;;;;;;4.60;2.72;;;28.10;99.90;;;;;;5065728;28;20066;-64
2022/09/12 09:54:30;;;;;;;7.35;2.40;;;28.10;99.90;;;;;;5058383;28;20071;-64
2022/09/12 09:56:57;;;;;;;4.90;2.28;;;28.10;99.90;;;;;;5043842;28;20063;-64
2022/09/12 09:59:28;;;;;;;4.55;2.08;;;28.10;99.90;;;;;;5061980;28;20583;-66
2022/09/12 10:02:02;;;;;;;4.60;2.30;;;28.20;99.90;;;;;;5061791;28;20076;-65
2022/09/12 10:04:41;;;;;;;4.38;1.95;;;28.20;99.90;;;;;;5025049;28;20737;-65
2022/09/12 10:07:18;;;;;;;9.82;2.50;;;28.20;99.90;;;;;;5059948;28;20073;-64
2022/09/12 10:10:24;;;;;;;5.68;2.50;;;28.20;99.90;;;;;;5049797;28;20118;-65
2022/09/12 10:13:05;;;;;;;4.32;2.20;;;28.10;99.90;;;;;;5053313;28;20089;-64
2022/09/12 10:15:33;;;;;;;7.93;2.38;;;28.10;99.90;;;;;;5064686;28;20168;-64
2022/09/12 10:18:01;;;;;;;9.57;2.55;;;28.10;99.90;;;;;;5062457;28;20101;-64
2022/09/12 10:20:39;;;;;;;6.70;2.67;;;28.10;99.90;;;;;;5067776;28;20086;-64
2022/09/12 10:23:32;;;;;;;6.20;2.60;;;28.10;99.90;;;;;;5065746;28;20060;-65
2022/09/12 10:26:03;;;;;;;6.00;2.97;;;28.10;99.90;;;;;;5059231;28;20200;-65
2022/09/12 10:28:40;;;;;;;8.40;2.95;;;28.10;99.90;;;;;;5067531;28;20062;-65
2022/09/12 10:31:10;;;;;;;6.72;2.85;;;28.10;99.90;;;;;;5065941;28;20213;-64
2022/09/12 10:33:52;;;;;;;5.18;2.70;;;28.10;99.90;;;;;;5067266;28;20086;-64
2022/09/12 10:36:22;;;;;;;8.18;3.25;;;28.10;99.90;;;;;;5061786;28;20107;-66
2022/09/12 10:38:56;;;;;;;9.32;3.45;;;28.10;99.90;;;;;;5064442;28;20080;-64
2022/09/12 10:41:23;;;;;;;5.40;3.20;;;28.10;99.90;;;;;;5067019;28;20089;-64
2022/09/12 10:43:50;;;;;;;5.10;2.88;;;28.00;99.90;;;;;;5063408;28;20070;-64
2022/09/12 10:46:21;;;;;;;4.22;2.80;;;28.10;99.90;;;;;;5067923;28;20179;-64
2022/09/12 10:49:08;;;;;;;5.82;3.00;;;28.10;99.90;;;;;;5066002;28;20178;-64
2022/09/12 10:51:34;;;;;;;12.13;5.63;;;28.00;99.90;;;;;;5064970;28;20432;-64
2022/09/12 10:54:04;;;;;;;10.15;6.43;;;28.00;99.90;;;;;;5066032;28;20112;-63
2022/09/12 10:56:50;;;;;;;10.70;7.35;;;28.00;99.90;;;;;;5065813;28;20071;-66
2022/09/12 10:59:23;;;;;;;12.25;8.45;;;27.90;99.90;;;;;;5049301;28;20066;-63
2022/09/12 11:02:01;;;;;;;11.43;8.25;;;27.90;99.90;;;;;;5054889;28;20068;-64
2022/09/12 11:05:00;;;;;;;15.95;9.05;;;27.90;99.90;;;;;;5058863;28;20518;-64
2022/09/12 11:07:46;;;;;;;13.07;9.32;;;27.90;99.90;;;;;;5060493;28;20672;-64
2022/09/12 11:10:47;;;;;;;12.60;9.85;;;27.90;99.90;;;;;;5061191;28;20095;-64
2022/09/12 11:13:27;;;;;;;18.48;10.32;;;27.90;99.90;;;;;;5063702;28;20070;-64
2022/09/12 11:16:15;;;;;;;19.08;10.75;;;27.90;99.90;;;;;;5066612;28;20065;-65
2022/09/12 11:19:14;;;;;;;12.60;10.45;;;27.90;99.90;;;;;;5068019;28;20093;-65
2022/09/12 11:22:07;;;;;;;16.13;10.45;;;27.90;99.90;;;;;;5057367;28;20100;-65
2022/09/12 11:25:21;;;;;;;16.10;11.05;;;27.90;99.90;;;;;;5070694;28;20598;-65
2022/09/12 11:27:54;;;;;;;19.02;11.88;;;27.80;99.90;;;;;;5052303;28;20102;-66
2022/09/12 11:30:20;;;;;;;18.20;11.70;;;27.90;99.90;;;;;;5067372;28;20083;-65
2022/09/12 11:33:01;;;;;;;18.42;12.57;;;27.80;99.90;;;;;;5052273;28;20545;-64
2022/09/12 11:35:29;;;;;;;17.40;11.88;;;27.90;99.90;;;;;;5051668;28;20208;-65
2022/09/12 11:38:16;;;;;;;13.02;11.43;;;27.80;99.90;;;;;;5049577;28;20115;-67
2022/09/12 11:40:53;;;;;;;16.05;12.38;;;27.80;99.90;;;;;;5051988;28;20088;-65
2022/09/12 11:43:41;;;;;;;18.75;12.20;;;27.80;99.90;;;;;;5048770;28;20070;-64
2022/09/12 11:46:35;;;;;;;17.95;12.20;;;27.80;99.90;;;;;;5067948;28;20065;-64
2022/09/12 11:49:14;;;;;;;22.20;13.45;;;27.80;99.90;;;;;;5068578;28;20064;-63
2022/09/12 11:51:46;;;;;;;15.57;11.60;;;27.80;99.90;;;;;;5051367;28;20078;-64
2022/09/12 11:54:37;;;;;;;21.13;12.43;;;27.80;99.90;;;;;;5068937;28;20099;-64
2022/09/12 11:57:17;;;;;;;17.88;11.80;;;27.80;99.90;;;;;;5050247;28;20081;-63
2022/09/12 12:00:13;;;;;;;18.17;11.68;;;27.80;99.90;;;;;;5048985;28;20068;-64
2022/09/12 12:02:56;;;;;;;15.60;11.52;;;27.80;99.90;;;;;;5058698;28;20545;-64
2022/09/12 12:05:35;;;;;;;16.63;12.10;;;27.80;99.90;;;;;;5069001;28;20093;-64
2022/09/12 12:08:04;;;;;;;13.63;11.13;;;27.80;99.90;;;;;;5061470;28;20068;-64
2022/09/12 12:10:43;;;;;;;14.55;10.52;;;27.80;99.90;;;;;;5067730;28;20078;-64
2022/09/12 12:13:18;;;;;;;15.48;10.52;;;27.60;99.90;;;;;;5068691;28;20157;-64
2022/09/12 12:15:51;;;;;;;14.32;11.13;;;27.70;99.90;;;;;;5068021;28;20550;-66
2022/09/12 12:18:27;;;;;;;15.13;11.00;;;27.60;99.90;;;;;;5067608;28;20527;-64
2022/09/12 12:20:54;;;;;;;14.85;10.63;;;27.60;99.90;;;;;;5068661;28;20084;-64
2022/09/12 12:23:31;;;;;;;15.30;10.68;;;27.60;99.90;;;;;;5061811;28;20095;-65
2022/09/12 12:26:04;;;;;;;13.15;10.80;;;27.60;99.90;;;;;;5068504;28;20631;-64
2022/09/12 12:28:49;;;;;;;15.18;10.07;;;27.60;99.90;;;;;;5058773;28;20686;-64
2022/09/12 12:31:16;;;;;;;15.13;10.70;;;27.60;99.90;;;;;;5058872;28;20076;-64
2022/09/12 12:33:43;;;;;;;23.35;9.90;;;27.60;99.90;;;;;;5063533;28;20096;-64
2022/09/12 12:36:28;;;;;;;14.52;9.60;;;27.60;99.90;;;;;;5065674;28;20554;-66
2022/09/12 12:38:54;;;;;;;15.88;9.63;;;27.50;99.90;;;;;;5064864;28;20606;-64
2022/09/12 12:41:22;;;;;;;13.25;10.23;;;27.50;99.90;;;;;;5063959;28;20116;-65
2022/09/12 12:43:51;;;;;;;18.40;11.05;;;27.50;99.90;;;;;;5066594;28;20550;-64
2022/09/12 12:46:22;;;;;;;15.20;9.80;;;27.40;99.90;;;;;;5059420;28;20685;-64
2022/09/12 12:49:27;;;;;;;13.93;8.98;;;27.40;99.90;;;;;;5069041;28;20446;-65
2022/09/12 12:51:53;;;;;;;14.23;9.05;;;27.40;99.90;;;;;;5067431;28;20091;-65
2022/09/12 12:54:46;;;;;;;17.00;10.60;;;27.40;99.90;;;;;;5068629;28;20079;-63
2022/09/12 12:57:29;;;;;;;17.02;9.52;;;27.30;99.90;;;;;;5064936;28;20118;-64
2022/09/12 13:00:26;;;;;;;17.70;10.52;;;27.30;99.90;;;;;;5082911;28;20074;-64
2022/09/12 13:03:07;;;;;;;16.10;9.27;;;27.30;99.90;;;;;;5067698;28;20157;-64
2022/09/12 13:05:42;;;;;;;18.63;9.88;;;27.30;99.90;;;;;;5067279;28;20489;-63
2022/09/12 13:08:17;;;;;;;15.52;10.02;;;27.30;99.90;;;;;;5065586;28;20410;-65
2022/09/12 13:11:20;;;;;;;16.05;9.85;;;27.30;99.90;;;;;;5067213;28;20126;-65
2022/09/12 13:14:27;;;;;;;17.85;11.10;;;27.30;99.90;;;;;;5066660;28;20076;-64